Time;durP1;ratioP1;P1;durP2;ratioP2;P2;SDS_P1;SDS_P2;PMS_P1;PMS_P2;Temp;Humidity;BMP_temperature;BMP_pressure;BME280_temperature;BME280_humidity;BME280_pressure;Samples;Min_cycle;Max_cycle;Signal;HPM_P1;HPM_P2
2021/04/17 00:00:20;;;;;;;8.23;7.07;;;;;;;;;;5093997;28;20443;-55
2021/04/17 00:02:46;;;;;;;13.27;7.05;;;;;;;;;;5094200;28;20438;-55
2021/04/17 00:05:13;;;;;;;9.53;6.97;;;;;;;;;;5093755;28;20310;-54
2021/04/17 00:07:39;;;;;;;9.23;6.63;;;;;;;;;;5094024;28;20918;-56
2021/04/17 00:10:05;;;;;;;7.43;6.20;;;;;;;;;;5093825;28;20186;-55
2021/04/17 00:12:31;;;;;;;7.32;6.35;;;;;;;;;;5093971;28;20442;-55
2021/04/17 00:14:57;;;;;;;8.70;6.20;;;;;;;;;;5093537;28;20696;-54
2021/04/17 00:17:23;;;;;;;10.13;6.40;;;;;;;;;;5093741;28;20392;-55
2021/04/17 00:19:50;;;;;;;8.50;6.90;;;;;;;;;;5093659;28;20521;-54
2021/04/17 00:22:16;;;;;;;7.18;6.13;;;;;;;;;;5093843;28;20517;-55
2021/04/17 00:24:42;;;;;;;11.47;6.47;;;;;;;;;;5093669;28;20197;-55
2021/04/17 00:27:08;;;;;;;6.00;5.40;;;;;;;;;;5093452;28;20388;-55
2021/04/17 00:29:34;;;;;;;7.65;5.32;;;;;;;;;;5093497;28;20939;-56
2021/04/17 00:32:01;;;;;;;12.60;5.65;;;;;;;;;;5093647;28;20591;-55
2021/04/17 00:34:27;;;;;;;8.15;6.60;;;;;;;;;;5093427;28;20280;-55
2021/04/17 00:36:53;;;;;;;9.40;6.57;;;;;;;;;;5093367;28;20617;-55
2021/04/17 00:39:19;;;;;;;8.30;6.33;;;;;;;;;;5093249;28;20781;-55
2021/04/17 00:41:45;;;;;;;9.30;6.43;;;;;;;;;;5093497;28;20399;-55
2021/04/17 00:44:11;;;;;;;6.90;5.40;;;;;;;;;;5093461;28;20400;-55
2021/04/17 00:46:37;;;;;;;7.03;5.90;;;;;;;;;;5093106;28;20395;-55
2021/04/17 00:49:03;;;;;;;6.00;5.40;;;;;;;;;;5093466;28;20794;-54
2021/04/17 00:51:29;;;;;;;6.53;5.32;;;;;;;;;;5093309;28;20478;-55
2021/04/17 00:53:55;;;;;;;8.27;6.00;;;;;;;;;;5093353;28;20197;-54
2021/04/17 00:56:21;;;;;;;6.53;5.55;;;;;;;;;;5093059;28;20407;-54
2021/04/17 00:58:48;;;;;;;6.15;5.40;;;;;;;;;;5092855;28;20207;-55
2021/04/17 01:01:14;;;;;;;7.05;5.65;;;;;;;;;;5092590;28;20162;-55
2021/04/17 01:03:59;;;;;;;9.60;6.05;;;;;;;;;;5092417;28;20192;-55
2021/04/17 01:06:47;;;;;;;8.10;5.70;;;;;;;;;;5092057;28;20204;-56
2021/04/17 01:09:22;;;;;;;8.07;6.00;;;;;;;;;;5092801;28;20181;-56
2021/04/17 01:11:52;;;;;;;13.15;6.00;;;;;;;;;;5092603;28;20528;-54
2021/04/17 01:14:19;;;;;;;9.13;5.60;;;;;;;;;;5092723;28;20189;-55
2021/04/17 01:16:46;;;;;;;5.75;4.88;;;;;;;;;;5092288;28;20314;-54
2021/04/17 01:19:14;;;;;;;7.60;5.45;;;;;;;;;;5092615;28;20267;-55
2021/04/17 01:21:41;;;;;;;6.68;4.85;;;;;;;;;;5092456;28;20165;-55
2021/04/17 01:24:08;;;;;;;9.77;5.07;;;;;;;;;;5092587;28;20256;-55
2021/04/17 01:26:34;;;;;;;7.68;5.05;;;;;;;;;;5092167;28;20161;-54
2021/04/17 01:29:00;;;;;;;10.60;5.72;;;;;;;;;;5092327;28;20665;-55
2021/04/17 01:31:31;;;;;;;6.07;5.28;;;;;;;;;;5092307;28;20244;-55
2021/04/17 01:33:57;;;;;;;6.50;5.03;;;;;;;;;;5092333;28;20201;-54
2021/04/17 01:36:26;;;;;;;6.03;4.95;;;;;;;;;;5091924;28;20164;-55
2021/04/17 01:38:53;;;;;;;5.53;4.88;;;;;;;;;;5091631;28;20243;-55
2021/04/17 01:41:36;;;;;;;6.72;5.30;;;;;;;;;;5092039;28;20158;-54
2021/04/17 01:44:03;;;;;;;6.30;5.35;;;;;;;;;;5092048;28;20165;-55
2021/04/17 01:49:36;;;;;;;7.10;5.40;;;;;;;;;;5091655;28;20184;-55
2021/04/17 01:52:02;;;;;;;7.60;6.00;;;;;;;;;;5092120;28;20165;-54
2021/04/17 01:54:29;;;;;;;5.50;4.72;;;;;;;;;;5091856;28;20219;-54
2021/04/17 01:56:58;;;;;;;12.50;5.50;;;;;;;;;;5091554;28;20164;-55
2021/04/17 01:59:25;;;;;;;7.97;5.25;;;;;;;;;;5091669;28;20276;-55
2021/04/17 02:01:51;;;;;;;8.05;5.15;;;;;;;;;;5091620;28;20165;-55
2021/04/17 02:04:17;;;;;;;5.47;4.97;;;;;;;;;;5091815;28;20197;-55
2021/04/17 02:06:43;;;;;;;6.50;4.90;;;;;;;;;;5091483;28;20170;-55
2021/04/17 02:09:09;;;;;;;6.97;5.30;;;;;;;;;;5091534;28;20739;-55
2021/04/17 02:11:35;;;;;;;7.30;5.90;;;;;;;;;;5091663;28;20630;-55
2021/04/17 02:14:01;;;;;;;9.57;6.63;;;;;;;;;;5091369;28;20193;-54
2021/04/17 02:16:39;;;;;;;6.95;4.45;;;;;;;;;;5091260;28;20180;-55
2021/04/17 02:19:08;;;;;;;5.68;5.10;;;;;;;;;;5091364;28;20239;-55
2021/04/17 02:21:39;;;;;;;5.93;5.32;;;;;;;;;;5091546;28;20165;-55
2021/04/17 02:24:06;;;;;;;5.78;5.18;;;;;;;;;;5091318;28;20606;-54
2021/04/17 02:26:32;;;;;;;6.72;6.07;;;;;;;;;;5091169;28;20165;-55
2021/04/17 02:28:58;;;;;;;7.60;5.93;;;;;;;;;;5091120;28;20189;-55
2021/04/17 02:31:25;;;;;;;7.57;4.40;;;;;;;;;;5091405;28;20169;-55
2021/04/17 02:33:51;;;;;;;6.68;5.53;;;;;;;;;;5072986;28;20454;-55
2021/04/17 02:36:17;;;;;;;8.13;5.80;;;;;;;;;;5091057;28;20508;-56
2021/04/17 02:38:43;;;;;;;7.80;5.37;;;;;;;;;;5091009;28;20418;-55
2021/04/17 02:41:11;;;;;;;10.13;4.40;;;;;;;;;;5091221;28;20396;-55
2021/04/17 02:43:37;;;;;;;6.68;5.50;;;;;;;;;;5090986;28;20453;-55
2021/04/17 02:46:03;;;;;;;8.50;5.90;;;;;;;;;;5090896;28;20538;-55
2021/04/17 02:48:29;;;;;;;7.80;5.15;;;;;;;;;;5090850;28;20172;-56
2021/04/17 02:50:55;;;;;;;8.52;5.15;;;;;;;;;;5090276;28;20161;-56
2021/04/17 02:53:21;;;;;;;7.20;5.90;;;;;;;;;;5091098;28;20174;-55
2021/04/17 02:55:47;;;;;;;7.07;5.07;;;;;;;;;;5090702;28;20458;-55
2021/04/17 02:58:13;;;;;;;6.57;5.57;;;;;;;;;;5090785;28;20900;-55
2021/04/17 03:00:39;;;;;;;6.07;5.33;;;;;;;;;;5090798;28;20432;-55
2021/04/17 03:03:05;;;;;;;6.93;6.23;;;;;;;;;;5091121;28;20485;-55
2021/04/17 03:05:31;;;;;;;6.83;4.93;;;;;;;;;;5090831;28;20403;-55
2021/04/17 03:07:57;;;;;;;8.43;5.20;;;;;;;;;;5091156;28;20812;-56
2021/04/17 03:10:23;;;;;;;8.20;5.73;;;;;;;;;;5090809;28;20185;-54
2021/04/17 03:12:49;;;;;;;9.63;5.23;;;;;;;;;;5090776;28;20935;-55
2021/04/17 03:15:15;;;;;;;8.17;5.77;;;;;;;;;;5090375;28;20478;-54
2021/04/17 03:17:42;;;;;;;5.72;5.10;;;;;;;;;;5090858;28;20402;-55
2021/04/17 03:20:09;;;;;;;7.40;5.03;;;;;;;;;;5090627;28;20560;-55
2021/04/17 03:22:35;;;;;;;8.25;5.30;;;;;;;;;;5090743;28;20169;-54
2021/04/17 03:25:03;;;;;;;10.25;6.15;;;;;;;;;;5090323;28;20643;-54
2021/04/17 03:27:29;;;;;;;7.95;4.65;;;;;;;;;;5090614;28;20179;-55
2021/04/17 03:29:55;;;;;;;7.83;4.80;;;;;;;;;;5090468;28;20190;-54
2021/04/17 03:32:21;;;;;;;9.27;5.73;;;;;;;;;;5090697;28;20447;-55
2021/04/17 03:34:47;;;;;;;9.77;5.70;;;;;;;;;;5090364;28;20451;-55
2021/04/17 03:37:13;;;;;;;11.32;4.97;;;;;;;;;;5090375;28;20401;-54
2021/04/17 03:39:39;;;;;;;7.75;5.93;;;;;;;;;;5090520;28;20665;-55
2021/04/17 03:42:05;;;;;;;6.93;5.40;;;;;;;;;;5090237;28;20218;-55
2021/04/17 03:44:31;;;;;;;7.00;5.35;;;;;;;;;;5090487;28;20944;-55
2021/04/17 03:46:57;;;;;;;5.80;5.03;;;;;;;;;;5090096;28;20185;-54
2021/04/17 03:49:23;;;;;;;10.70;5.73;;;;;;;;;;5090510;28;20429;-55
2021/04/17 03:51:49;;;;;;;9.40;5.70;;;;;;;;;;5090342;28;20489;-55
2021/04/17 03:54:15;;;;;;;12.10;6.00;;;;;;;;;;5090367;28;20446;-56
2021/04/17 03:56:41;;;;;;;11.97;6.03;;;;;;;;;;5089960;28;20914;-55
2021/04/17 03:59:07;;;;;;;14.10;5.77;;;;;;;;;;5090189;28;20470;-55
2021/04/17 04:01:33;;;;;;;6.77;5.80;;;;;;;;;;5090231;28;20439;-54
2021/04/17 04:03:59;;;;;;;6.47;5.50;;;;;;;;;;5093853;28;20423;-55
2021/04/17 04:06:26;;;;;;;9.15;6.10;;;;;;;;;;5093655;28;20406;-56
2021/04/17 04:08:52;;;;;;;7.40;6.07;;;;;;;;;;5094034;28;20238;-55
2021/04/17 04:11:18;;;;;;;8.27;6.03;;;;;;;;;;5093741;28;20385;-54
2021/04/17 04:13:44;;;;;;;8.07;5.50;;;;;;;;;;5093911;28;20398;-54
2021/04/17 04:16:10;;;;;;;7.93;5.70;;;;;;;;;;5093470;28;20486;-55
2021/04/17 04:18:36;;;;;;;6.20;5.37;;;;;;;;;;5093793;28;20244;-55
2021/04/17 04:21:02;;;;;;;11.23;5.50;;;;;;;;;;5093823;28;20409;-55
2021/04/17 04:23:28;;;;;;;9.13;6.20;;;;;;;;;;5093634;28;20413;-55
2021/04/17 04:25:54;;;;;;;7.83;6.00;;;;;;;;;;5093385;28;20170;-55
2021/04/17 04:28:20;;;;;;;8.50;5.78;;;;;;;;;;5093530;28;20492;-55
2021/04/17 04:30:46;;;;;;;10.03;5.53;;;;;;;;;;5093701;28;20255;-55
2021/04/17 04:33:12;;;;;;;7.47;6.32;;;;;;;;;;5093485;28;20881;-57
2021/04/17 04:35:38;;;;;;;8.97;5.80;;;;;;;;;;5093218;28;20307;-55
2021/04/17 04:38:04;;;;;;;7.53;5.80;;;;;;;;;;5093428;28;20404;-54
2021/04/17 04:40:30;;;;;;;13.63;6.00;;;;;;;;;;5093314;28;20794;-56
2021/04/17 04:42:56;;;;;;;6.37;5.20;;;;;;;;;;5093288;28;20392;-55
2021/04/17 04:45:22;;;;;;;7.43;5.30;;;;;;;;;;5093199;28;20399;-55
2021/04/17 04:47:48;;;;;;;12.03;6.27;;;;;;;;;;5093228;28;20412;-55
2021/04/17 04:50:14;;;;;;;7.20;5.80;;;;;;;;;;5093315;28;20431;-55
2021/04/17 04:52:40;;;;;;;9.77;6.28;;;;;;;;;;5093093;28;20397;-56
2021/04/17 04:55:06;;;;;;;19.38;5.45;;;;;;;;;;5092654;28;20192;-55
2021/04/17 04:57:32;;;;;;;7.95;6.43;;;;;;;;;;5092934;28;20168;-55
2021/04/17 04:59:58;;;;;;;11.73;6.20;;;;;;;;;;5092945;28;20578;-54
2021/04/17 05:02:24;;;;;;;11.83;6.20;;;;;;;;;;5093363;28;20401;-55
2021/04/17 05:04:50;;;;;;;8.40;6.30;;;;;;;;;;5092945;28;20409;-54
2021/04/17 05:07:16;;;;;;;6.97;5.27;;;;;;;;;;5092703;28;20664;-55
2021/04/17 05:09:42;;;;;;;8.20;6.07;;;;;;;;;;5092619;28;20942;-54
2021/04/17 05:12:08;;;;;;;9.43;6.70;;;;;;;;;;5092832;28;20420;-55
2021/04/17 05:14:34;;;;;;;7.90;5.90;;;;;;;;;;5091777;28;20453;-55
2021/04/17 05:17:00;;;;;;;13.50;7.20;;;;;;;;;;5092476;28;20655;-55
2021/04/17 05:19:26;;;;;;;8.10;6.07;;;;;;;;;;5092461;28;20931;-55
2021/04/17 05:21:53;;;;;;;9.33;6.20;;;;;;;;;;5093094;28;20406;-53
2021/04/17 05:24:19;;;;;;;10.73;7.15;;;;;;;;;;5092365;28;20475;-53
2021/04/17 05:26:45;;;;;;;8.60;5.95;;;;;;;;;;5092360;28;20601;-52
2021/04/17 05:29:11;;;;;;;9.10;6.83;;;;;;;;;;5092327;28;20718;-55
2021/04/17 05:31:37;;;;;;;8.65;6.30;;;;;;;;;;5092470;28;20405;-55
2021/04/17 05:34:03;;;;;;;10.50;7.53;;;;;;;;;;5092164;28;20286;-55
2021/04/17 05:36:29;;;;;;;9.93;6.80;;;;;;;;;;5092086;28;20426;-55
2021/04/17 05:38:55;;;;;;;8.98;6.03;;;;;;;;;;5092235;28;20697;-54
2021/04/17 05:41:21;;;;;;;10.77;6.07;;;;;;;;;;5092080;28;20165;-55
2021/04/17 05:43:47;;;;;;;10.70;6.68;;;;;;;;;;5092309;28;20172;-52
2021/04/17 05:46:13;;;;;;;7.80;6.50;;;;;;;;;;5091775;28;20179;-52
2021/04/17 05:48:39;;;;;;;11.33;6.93;;;;;;;;;;5092093;28;20467;-52
2021/04/17 05:51:05;;;;;;;9.20;6.18;;;;;;;;;;5091847;28;20767;-53
2021/04/17 05:53:31;;;;;;;9.18;6.53;;;;;;;;;;5091927;28;20168;-53
2021/04/17 05:55:57;;;;;;;7.97;6.10;;;;;;;;;;5091519;28;20197;-53
2021/04/17 05:58:23;;;;;;;8.65;6.90;;;;;;;;;;5091758;28;20418;-53
2021/04/17 06:00:49;;;;;;;9.30;6.30;;;;;;;;;;5091867;28;20544;-53
2021/04/17 06:03:15;;;;;;;11.33;5.53;;;;;;;;;;5091917;28;20437;-53
2021/04/17 06:05:41;;;;;;;9.97;6.20;;;;;;;;;;5091437;28;20448;-54
2021/04/17 06:08:07;;;;;;;10.40;6.37;;;;;;;;;;5091656;28;20410;-53
2021/04/17 06:10:33;;;;;;;9.90;5.33;;;;;;;;;;5091566;28;20430;-54
2021/04/17 06:12:59;;;;;;;6.20;5.27;;;;;;;;;;5091670;28;20891;-55
2021/04/17 06:15:25;;;;;;;11.93;5.77;;;;;;;;;;5091173;28;20457;-52
2021/04/17 06:17:51;;;;;;;6.63;5.47;;;;;;;;;;5091570;28;20395;-53
2021/04/17 06:20:17;;;;;;;8.57;5.82;;;;;;;;;;5091334;28;20469;-55
2021/04/17 06:22:43;;;;;;;8.30;5.25;;;;;;;;;;5091368;28;20185;-56
2021/04/17 06:25:10;;;;;;;9.63;5.63;;;;;;;;;;5091068;28;20169;-55
2021/04/17 06:27:36;;;;;;;10.15;6.38;;;;;;;;;;5091413;28;20404;-52
2021/04/17 06:30:03;;;;;;;8.20;5.50;;;;;;;;;;5091320;28;20193;-52
2021/04/17 06:32:29;;;;;;;8.15;5.25;;;;;;;;;;5091210;28;20465;-55
2021/04/17 06:34:55;;;;;;;12.43;5.93;;;;;;;;;;5091043;28;20231;-55
2021/04/17 06:37:21;;;;;;;14.53;5.97;;;;;;;;;;5090888;28;20403;-54
2021/04/17 06:39:47;;;;;;;8.38;6.35;;;;;;;;;;5091324;28;20446;-54
2021/04/17 06:42:15;;;;;;;9.65;5.68;;;;;;;;;;5091083;28;20649;-55
2021/04/17 06:44:42;;;;;;;9.32;5.72;;;;;;;;;;5091259;28;20183;-55
2021/04/17 06:47:15;;;;;;;8.73;5.75;;;;;;;;;;5090978;28;20165;-52
2021/04/17 06:49:41;;;;;;;8.32;6.00;;;;;;;;;;5091266;28;20185;-52
2021/04/17 06:52:09;;;;;;;9.98;5.85;;;;;;;;;;5091153;28;20741;-52
2021/04/17 06:54:35;;;;;;;7.88;5.40;;;;;;;;;;5091184;28;20542;-52
2021/04/17 06:57:01;;;;;;;11.48;5.25;;;;;;;;;;5090741;28;20166;-52
2021/04/17 06:59:29;;;;;;;7.03;5.47;;;;;;;;;;5090816;28;20207;-52
2021/04/17 07:01:55;;;;;;;6.67;5.00;;;;;;;;;;5090760;28;20392;-53
2021/04/17 07:04:21;;;;;;;10.77;7.03;;;;;;;;;;5090983;28;20416;-52
2021/04/17 07:06:47;;;;;;;10.53;5.33;;;;;;;;;;5090658;28;20402;-52
2021/04/17 07:09:13;;;;;;;6.13;5.57;;;;;;;;;;5090688;28;20424;-52
2021/04/17 07:11:39;;;;;;;10.27;6.03;;;;;;;;;;5090842;28;20408;-53
2021/04/17 07:14:16;;;;;;;8.70;5.40;;;;;;;;;;5090611;28;20459;-52
2021/04/17 07:16:55;;;;;;;8.07;5.10;;;;;;;;;;5090464;28;20414;-52
2021/04/17 07:19:23;;;;;;;8.70;5.80;;;;;;;;;;5090539;28;20411;-52
2021/04/17 07:21:49;;;;;;;11.50;6.03;;;;;;;;;;5090675;28;20405;-55
2021/04/17 07:24:27;;;;;;;9.73;7.03;;;;;;;;;;5090553;28;20897;-54
2021/04/17 07:26:54;;;;;;;8.83;6.10;;;;;;;;;;5090387;28;20774;-56
2021/04/17 07:29:20;;;;;;;6.20;5.10;;;;;;;;;;5090374;28;20423;-53
2021/04/17 07:31:54;;;;;;;10.50;4.77;;;;;;;;;;5090660;28;20430;-53
2021/04/17 07:34:21;;;;;;;8.80;5.13;;;;;;;;;;5072281;28;20447;-53
2021/04/17 07:36:49;;;;;;;6.93;5.50;;;;;;;;;;5090484;28;20417;-54
2021/04/17 07:39:29;;;;;;;6.23;5.00;;;;;;;;;;5094539;28;20419;-53
2021/04/17 07:41:59;;;;;;;10.90;5.83;;;;;;;;;;5094587;28;20487;-53
2021/04/17 07:44:34;;;;;;;6.43;5.53;;;;;;;;;;5094392;28;20395;-55
2021/04/17 07:47:00;;;;;;;5.73;4.40;;;;;;;;;;5094148;28;20424;-55
2021/04/17 07:49:27;;;;;;;10.33;5.00;;;;;;;;;;5094218;28;20491;-54
2021/04/17 07:51:57;;;;;;;9.70;5.10;;;;;;;;;;5094419;28;20415;-53
2021/04/17 07:54:23;;;;;;;9.50;5.20;;;;;;;;;;5094095;28;20512;-53
2021/04/17 07:56:49;;;;;;;8.30;5.43;;;;;;;;;;5094077;28;20614;-53
2021/04/17 07:59:19;;;;;;;8.63;5.30;;;;;;;;;;5093907;28;20402;-53
2021/04/17 08:01:45;;;;;;;6.33;4.00;;;;;;;;;;5094198;28;20374;-55
2021/04/17 08:04:11;;;;;;;4.90;4.40;;;;;;;;;;5093930;28;20385;-56
2021/04/17 08:06:38;;;;;;;5.40;3.87;;;;;;;;;;5093688;28;20405;-54
2021/04/17 08:09:06;;;;;;;9.97;4.17;;;;;;;;;;5094020;28;20826;-52
2021/04/17 08:11:33;;;;;;;9.70;4.03;;;;;;;;;;5093736;28;20370;-53
2021/04/17 08:13:59;;;;;;;5.30;4.57;;;;;;;;;;5093892;28;20927;-53
2021/04/17 08:16:25;;;;;;;8.23;4.57;;;;;;;;;;5093497;28;20396;-53
2021/04/17 08:18:51;;;;;;;6.60;4.27;;;;;;;;;;5093782;28;20386;-53
2021/04/17 08:21:20;;;;;;;6.93;3.90;;;;;;;;;;5093668;28;20369;-53
2021/04/17 08:23:47;;;;;;;5.70;4.30;;;;;;;;;;5092573;28;20367;-55
2021/04/17 08:26:13;;;;;;;9.63;4.40;;;;;;;;;;5093274;28;20414;-53
2021/04/17 08:28:41;;;;;;;4.67;4.00;;;;;;;;;;5093567;28;20407;-53
2021/04/17 08:31:25;;;;;;;6.00;3.70;;;;;;;;;;5093426;28;20487;-54
2021/04/17 08:34:06;;;;;;;5.20;4.70;;;;;;;;;;5093473;28;20462;-53
2021/04/17 08:36:33;;;;;;;12.73;4.00;;;;;;;;;;5093209;28;20398;-56
2021/04/17 08:38:59;;;;;;;5.57;4.00;;;;;;;;;;5093467;28;20426;-53
2021/04/17 08:41:41;;;;;;;5.73;3.73;;;;;;;;;;5093404;28;20763;-53
2021/04/17 08:44:26;;;;;;;9.67;3.90;;;;;;;;;;5093440;28;20891;-53
2021/04/17 08:46:52;;;;;;;10.37;4.30;;;;;;;;;;5093215;28;20460;-53
2021/04/17 08:49:23;;;;;;;4.67;3.70;;;;;;;;;;5092058;28;20430;-57
2021/04/17 08:51:49;;;;;;;5.00;3.33;;;;;;;;;;5093398;28;20924;-56
2021/04/17 08:54:17;;;;;;;5.37;3.60;;;;;;;;;;5093487;28;20447;-55
2021/04/17 08:56:56;;;;;;;9.23;3.70;;;;;;;;;;5093054;28;20433;-58
2021/04/17 08:59:25;;;;;;;7.50;3.87;;;;;;;;;;5093183;28;20538;-53
2021/04/17 09:01:52;;;;;;;5.87;3.43;;;;;;;;;;5093118;28;20452;-56
2021/04/17 09:04:18;;;;;;;3.60;2.97;;;;;;;;;;5093064;28;20490;-53
2021/04/17 09:06:45;;;;;;;6.33;3.57;;;;;;;;;;5092791;28;20895;-53
2021/04/17 09:09:21;;;;;;;5.33;3.23;;;;;;;;;;5092643;28;20485;-55
2021/04/17 09:11:49;;;;;;;13.43;3.93;;;;;;;;;;5092865;28;20400;-53
2021/04/17 09:14:34;;;;;;;8.00;4.30;;;;;;;;;;5092601;28;20475;-56
2021/04/17 09:17:03;;;;;;;8.00;4.37;;;;;;;;;;5092558;28;20392;-54
2021/04/17 09:19:41;;;;;;;5.10;2.93;;;;;;;;;;5092375;28;20424;-53
2021/04/17 09:22:36;;;;;;;3.87;3.50;;;;;;;;;;5092615;28;20387;-56
2021/04/17 09:25:02;;;;;;;4.93;3.30;;;;;;;;;;5092218;28;20410;-53
2021/04/17 09:27:30;;;;;;;4.53;3.57;;;;;;;;;;5092584;28;20414;-53
2021/04/17 09:30:00;;;;;;;6.20;3.43;;;;;;;;;;5092144;28;20507;-55
2021/04/17 09:32:32;;;;;;;9.43;3.40;;;;;;;;;;5092374;28;20931;-53
2021/04/17 09:34:59;;;;;;;6.10;4.00;;;;;;;;;;5091905;28;20491;-53
2021/04/17 09:37:31;;;;;;;4.27;3.90;;;;;;;;;;5092276;28;20408;-53
2021/04/17 09:39:58;;;;;;;7.33;3.90;;;;;;;;;;5092125;28;20390;-53
2021/04/17 09:42:32;;;;;;;8.73;3.73;;;;;;;;;;5092207;28;20860;-55
2021/04/17 09:44:58;;;;;;;8.70;3.67;;;;;;;;;;5091977;28;20746;-56
2021/04/17 09:47:24;;;;;;;7.20;3.73;;;;;;;;;;5092122;28;20478;-55
2021/04/17 09:49:51;;;;;;;5.47;3.57;;;;;;;;;;5091939;28;20953;-55
2021/04/17 09:52:19;;;;;;;11.53;4.00;;;;;;;;;;5092116;28;20747;-56
2021/04/17 09:54:46;;;;;;;6.87;3.83;;;;;;;;;;5091829;28;20466;-53
2021/04/17 09:57:12;;;;;;;5.30;3.40;;;;;;;;;;5091715;28;20429;-53
2021/04/17 09:59:38;;;;;;;5.77;3.37;;;;;;;;;;5091323;28;20439;-54
2021/04/17 10:02:05;;;;;;;7.67;3.50;;;;;;;;;;5091771;28;20458;-53
2021/04/17 10:05:06;;;;;;;5.00;3.47;;;;;;;;;;5091807;28;20781;-53
2021/04/17 10:07:58;;;;;;;3.90;3.50;;;;;;;;;;4989676;28;20447;-53
2021/04/17 10:10:24;;;;;;;6.57;3.90;;;;;;;;;;5086601;28;20432;-54
2021/04/17 10:12:51;;;;;;;6.30;3.33;;;;;;;;;;5091705;28;20403;-54
2021/04/17 10:15:22;;;;;;;5.23;3.30;;;;;;;;;;5091108;28;20455;-53
2021/04/17 10:17:52;;;;;;;7.03;4.00;;;;;;;;;;5091412;28;20407;-53
2021/04/17 10:20:18;;;;;;;6.87;4.00;;;;;;;;;;5091298;28;20412;-56
2021/04/17 10:22:54;;;;;;;4.90;3.50;;;;;;;;;;5091552;28;20435;-53
2021/04/17 10:25:33;;;;;;;6.00;4.27;;;;;;;;;;5091280;28;20377;-54
2021/04/17 10:28:12;;;;;;;7.17;4.00;;;;;;;;;;5091455;28;20403;-53
2021/04/17 10:30:38;;;;;;;4.93;3.47;;;;;;;;;;5091006;28;20398;-52
2021/04/17 10:33:11;;;;;;;8.47;3.53;;;;;;;;;;5091356;28;20784;-53
2021/04/17 10:35:37;;;;;;;4.50;4.10;;;;;;;;;;5091013;28;20981;-54
2021/04/17 10:38:03;;;;;;;6.53;4.40;;;;;;;;;;5091102;28;20370;-55
2021/04/17 10:40:29;;;;;;;8.47;3.50;;;;;;;;;;5090644;28;20557;-54
2021/04/17 10:42:56;;;;;;;3.73;3.43;;;;;;;;;;5090781;28;20392;-55
2021/04/17 10:45:31;;;;;;;4.27;3.77;;;;;;;;;;5090787;28;20473;-53
2021/04/17 10:48:09;;;;;;;7.63;3.30;;;;;;;;;;5090977;28;20410;-56
2021/04/17 10:50:39;;;;;;;4.13;3.27;;;;;;;;;;5091173;28;20411;-56
2021/04/17 10:53:07;;;;;;;4.30;3.03;;;;;;;;;;5091002;28;20373;-55
2021/04/17 10:55:44;;;;;;;4.37;3.07;;;;;;;;;;5090754;28;20451;-56
2021/04/17 10:58:25;;;;;;;4.50;3.87;;;;;;;;;;5090771;28;20366;-55
2021/04/17 11:00:55;;;;;;;4.27;3.40;;;;;;;;;;5091023;28;20427;-52
2021/04/17 11:03:21;;;;;;;4.63;3.93;;;;;;;;;;5090935;28;20405;-52
2021/04/17 11:05:47;;;;;;;5.13;3.10;;;;;;;;;;5089207;28;20766;-53
2021/04/17 11:08:13;;;;;;;8.60;3.30;;;;;;;;;;5090772;28;20524;-52
2021/04/17 11:10:39;;;;;;;3.97;3.57;;;;;;;;;;5090710;28;20398;-52
2021/04/17 11:13:06;;;;;;;7.60;3.60;;;;;;;;;;5089887;28;20429;-52
2021/04/17 11:15:33;;;;;;;3.00;2.70;;;;;;;;;;5090372;28;20425;-55
2021/04/17 11:18:15;;;;;;;5.17;3.13;;;;;;;;;;5090506;28;20388;-53
2021/04/17 11:20:45;;;;;;;5.33;2.87;;;;;;;;;;5091383;28;20386;-56
2021/04/17 11:23:30;;;;;;;4.30;2.57;;;;;;;;;;5090557;28;20457;-53
2021/04/17 11:25:56;;;;;;;3.77;2.70;;;;;;;;;;5090470;28;20395;-54
2021/04/17 11:28:26;;;;;;;3.30;3.00;;;;;;;;;;5093337;28;20501;-56
2021/04/17 11:30:52;;;;;;;5.13;3.30;;;;;;;;;;5100727;28;20487;-55
2021/04/17 11:33:18;;;;;;;6.50;3.00;;;;;;;;;;5091458;28;20407;-55
2021/04/17 11:35:44;;;;;;;7.93;3.87;;;;;;;;;;5091907;28;20458;-55
2021/04/17 11:38:11;;;;;;;8.10;2.70;;;;;;;;;;5090529;28;20399;-53
2021/04/17 11:40:37;;;;;;;7.43;2.97;;;;;;;;;;5090292;28;20429;-53
2021/04/17 11:43:03;;;;;;;6.00;2.50;;;;;;;;;;5090548;28;20613;-53
2021/04/17 11:45:29;;;;;;;4.97;3.83;;;;;;;;;;5090299;28;20797;-54
2021/04/17 11:47:55;;;;;;;5.30;3.53;;;;;;;;;;5090508;28;20775;-53
2021/04/17 11:50:21;;;;;;;4.50;3.07;;;;;;;;;;5090216;28;20427;-54
2021/04/17 11:52:47;;;;;;;3.03;2.80;;;;;;;;;;5090431;28;20431;-53
2021/04/17 11:55:13;;;;;;;6.37;3.30;;;;;;;;;;5089976;28;20510;-55
2021/04/17 11:57:39;;;;;;;5.50;3.40;;;;;;;;;;5090169;28;20396;-53
2021/04/17 12:00:06;;;;;;;5.40;3.30;;;;;;;;;;5088161;28;20546;-53
2021/04/17 12:02:32;;;;;;;5.53;3.53;;;;;;;;;;5088718;28;20377;-53
2021/04/17 12:04:58;;;;;;;7.27;3.93;;;;;;;;;;5089436;28;21089;-53
2021/04/17 12:07:24;;;;;;;4.53;4.13;;;;;;;;;;5089421;28;20400;-53
2021/04/17 12:09:53;;;;;;;5.87;3.90;;;;;;;;;;5090227;28;20410;-56
2021/04/17 12:12:19;;;;;;;3.80;3.30;;;;;;;;;;5089893;28;20390;-55
2021/04/17 12:14:45;;;;;;;5.67;3.67;;;;;;;;;;5090080;28;20473;-55
2021/04/17 12:17:11;;;;;;;3.90;3.50;;;;;;;;;;5089963;28;20401;-55
2021/04/17 12:19:37;;;;;;;4.10;3.10;;;;;;;;;;5090202;28;20812;-54
2021/04/17 12:22:03;;;;;;;8.30;3.97;;;;;;;;;;5090193;28;20374;-55
2021/04/17 12:24:29;;;;;;;4.37;3.43;;;;;;;;;;5092795;28;20375;-53
2021/04/17 12:26:56;;;;;;;7.17;3.73;;;;;;;;;;5092350;28;20392;-54
2021/04/17 12:29:21;;;;;;;4.10;2.73;;;;;;;;;;5093519;28;20443;-55
2021/04/17 12:31:47;;;;;;;4.30;2.50;;;;;;;;;;5093791;28;20836;-56
2021/04/17 12:34:13;;;;;;;2.80;2.60;;;;;;;;;;5093593;28;20422;-55
2021/04/17 12:36:39;;;;;;;4.80;2.97;;;;;;;;;;5093508;28;20379;-52
2021/04/17 12:39:05;;;;;;;3.50;2.63;;;;;;;;;;5093532;28;20424;-52
2021/04/17 12:41:33;;;;;;;7.33;2.73;;;;;;;;;;5093607;28;20403;-52
2021/04/17 12:43:59;;;;;;;5.23;2.93;;;;;;;;;;5093252;28;20385;-53
2021/04/17 12:46:25;;;;;;;6.43;3.20;;;;;;;;;;5093244;28;20399;-52
2021/04/17 12:48:51;;;;;;;6.90;3.30;;;;;;;;;;5093286;28;20423;-53
2021/04/17 12:51:17;;;;;;;5.43;3.13;;;;;;;;;;5093317;28;20378;-52
2021/04/17 12:53:43;;;;;;;7.63;3.63;;;;;;;;;;5093022;28;20385;-53
2021/04/17 12:56:09;;;;;;;5.03;3.10;;;;;;;;;;5092750;28;20436;-52
2021/04/17 12:58:38;;;;;;;7.80;3.60;;;;;;;;;;5092543;28;20496;-54
2021/04/17 13:01:05;;;;;;;5.80;3.63;;;;;;;;;;5093122;28;20735;-53
2021/04/17 13:03:31;;;;;;;5.30;3.73;;;;;;;;;;5093104;28;20491;-56
2021/04/17 13:05:57;;;;;;;3.63;3.33;;;;;;;;;;5092679;28;20438;-52
2021/04/17 13:08:24;;;;;;;4.57;3.30;;;;;;;;;;5093025;28;20407;-53
2021/04/17 13:10:51;;;;;;;6.30;3.40;;;;;;;;;;5091562;28;20473;-55
2021/04/17 13:13:17;;;;;;;6.33;3.80;;;;;;;;;;5092615;28;20399;-53
2021/04/17 13:15:46;;;;;;;5.53;3.70;;;;;;;;;;5092345;28;20554;-55
2021/04/17 13:18:12;;;;;;;6.60;4.00;;;;;;;;;;5092668;28;20884;-53
2021/04/17 13:20:39;;;;;;;5.80;3.67;;;;;;;;;;5092461;28;20688;-53
2021/04/17 13:23:05;;;;;;;9.77;4.07;;;;;;;;;;5092971;28;20422;-54
2021/04/17 13:25:31;;;;;;;5.30;3.30;;;;;;;;;;5092114;28;20758;-55
2021/04/17 13:27:57;;;;;;;5.07;2.80;;;;;;;;;;5092339;28;20465;-52
2021/04/17 13:30:23;;;;;;;10.17;3.50;;;;;;;;;;5092354;28;20419;-55
2021/04/17 13:32:50;;;;;;;5.63;3.00;;;;;;;;;;5092272;28;20450;-53
2021/04/17 13:35:16;;;;;;;4.97;2.90;;;;;;;;;;5091191;28;20791;-53
2021/04/17 13:37:42;;;;;;;3.60;2.87;;;;;;;;;;5092184;28;20857;-52
2021/04/17 13:40:08;;;;;;;5.20;2.67;;;;;;;;;;5092131;28;20468;-52
2021/04/17 13:42:34;;;;;;;5.80;3.47;;;;;;;;;;5091515;28;20781;-54
2021/04/17 13:45:00;;;;;;;4.50;2.70;;;;;;;;;;5091978;28;20382;-55
2021/04/17 13:47:26;;;;;;;4.57;3.53;;;;;;;;;;5092182;28;20400;-53
2021/04/17 13:49:52;;;;;;;3.60;2.60;;;;;;;;;;5091851;28;20779;-53
2021/04/17 13:52:18;;;;;;;4.00;2.77;;;;;;;;;;5091931;28;20379;-54
2021/04/17 13:54:44;;;;;;;5.53;3.00;;;;;;;;;;5091646;28;20487;-53
2021/04/17 13:57:10;;;;;;;3.30;2.80;;;;;;;;;;5091754;28;20400;-53
2021/04/17 13:59:36;;;;;;;2.83;2.53;;;;;;;;;;5091822;28;20470;-53
2021/04/17 14:02:03;;;;;;;4.13;3.20;;;;;;;;;;5091692;28;20428;-52
2021/04/17 14:04:29;;;;;;;3.30;3.00;;;;;;;;;;5091632;28;20457;-53
2021/04/17 14:06:55;;;;;;;2.80;2.60;;;;;;;;;;5091420;28;20913;-52
2021/04/17 14:09:21;;;;;;;5.93;3.37;;;;;;;;;;5091845;28;20852;-52
2021/04/17 14:11:47;;;;;;;3.30;2.90;;;;;;;;;;5091689;28;20366;-52
2021/04/17 14:14:13;;;;;;;3.07;2.60;;;;;;;;;;5091552;28;20457;-52
2021/04/17 14:16:39;;;;;;;5.63;3.07;;;;;;;;;;5091427;28;20956;-52
2021/04/17 14:19:05;;;;;;;3.73;2.47;;;;;;;;;;5091660;28;20926;-52
2021/04/17 14:21:31;;;;;;;8.70;3.40;;;;;;;;;;5091505;28;20395;-52
2021/04/17 14:23:57;;;;;;;6.57;3.30;;;;;;;;;;5091293;28;20382;-52
2021/04/17 14:26:23;;;;;;;8.23;2.87;;;;;;;;;;5091083;28;20461;-51
2021/04/17 14:28:49;;;;;;;4.27;3.13;;;;;;;;;;5091167;28;20484;-53
2021/04/17 14:31:16;;;;;;;4.17;3.20;;;;;;;;;;5091441;28;20846;-53
2021/04/17 14:33:42;;;;;;;6.13;3.10;;;;;;;;;;5090543;28;20412;-52
2021/04/17 14:36:08;;;;;;;3.90;2.97;;;;;;;;;;5090784;28;20455;-52
2021/04/17 14:38:34;;;;;;;6.20;3.57;;;;;;;;;;5091046;28;20411;-52
2021/04/17 14:41:01;;;;;;;2.73;2.53;;;;;;;;;;5091126;28;20409;-55
2021/04/17 14:43:27;;;;;;;3.60;2.87;;;;;;;;;;5090892;28;20772;-54
2021/04/17 14:45:54;;;;;;;4.60;3.17;;;;;;;;;;5090753;28;20873;-53